| time (UTC) | temp C | wind direction | speed KPH | gust KPH | rain 1hr cm | rain 24hr cm | rain mn cm | humidity % | barometer mb |
| 20260510231444 | 13 | 283 | 14.5 | 27.4 | 0.00 | 0.00 | 0.00 | 44 | 1013.0 |
| 20260510231344 | 13 | 283 | 14.5 | 27.4 | 0.00 | 0.00 | 0.00 | 44 | 1013.0 |
| 20260510230443 | 13 | 270 | 29.0 | 40.2 | 0.00 | 0.00 | 0.00 | 38 | 1013.0 |
| 20260510230343 | 13 | 270 | 29.0 | 40.2 | 0.00 | 0.00 | 0.00 | 38 | 1013.0 |
| 20260510225443 | 13 | 270 | 29.0 | 40.2 | 0.00 | 0.00 | 0.00 | 38 | 1013.0 |
| 20260510225343 | 13 | 270 | 29.0 | 40.2 | 0.00 | 0.00 | 0.00 | 38 | 1013.0 |
| 20260510224442 | 13 | 270 | 29.0 | 40.2 | 0.00 | 0.00 | 0.00 | 38 | 1013.0 |
| 20260510224342 | 13 | 270 | 29.0 | 40.2 | 0.00 | 0.00 | 0.00 | 38 | 1013.0 |
| 20260510223442 | 13 | 270 | 29.0 | 40.2 | 0.00 | 0.00 | 0.00 | 38 | 1013.0 |
| 20260510223341 | 13 | 270 | 29.0 | 40.2 | 0.00 | 0.00 | 0.00 | 38 | 1013.0 |
| 20260510222441 | 13 | 270 | 29.0 | 40.2 | 0.00 | 0.00 | 0.00 | 38 | 1012.0 |
| 20260510222341 | 13 | 270 | 29.0 | 40.2 | 0.00 | 0.00 | 0.00 | 38 | 1012.0 |
| 20260510221441 | 13 | 270 | 29.0 | 40.2 | 0.00 | 0.00 | 0.00 | 39 | 1012.0 |
| 20260510221340 | 13 | 270 | 29.0 | 40.2 | 0.00 | 0.00 | 0.00 | 39 | 1012.0 |
| 20260510220439 | 13 | 290 | 20.9 | 33.8 | 0.00 | 0.00 | 0.00 | 41 | 1012.0 |
| 20260510220339 | 13 | 290 | 20.9 | 33.8 | 0.00 | 0.00 | 0.00 | 41 | 1012.0 |
| 20260510215439 | 13 | 290 | 20.9 | 33.8 | 0.00 | 0.00 | 0.00 | 41 | 1012.0 |
| 20260510215339 | 13 | 290 | 20.9 | 33.8 | 0.00 | 0.00 | 0.00 | 41 | 1012.0 |
| 20260510214438 | 13 | 290 | 20.9 | 33.8 | 0.00 | 0.00 | 0.00 | 41 | 1012.0 |
| 20260510214338 | 13 | 290 | 20.9 | 33.8 | 0.00 | 0.00 | 0.00 | 41 | 1012.0 |
| 20260510213437 | 13 | 290 | 20.9 | 33.8 | 0.00 | 0.00 | 0.00 | 41 | 1012.0 |
| 20260510213337 | 13 | 290 | 20.9 | 33.8 | 0.00 | 0.00 | 0.00 | 41 | 1012.0 |
| 20260510212437 | 13 | 290 | 20.9 | 33.8 | 0.00 | 0.00 | 0.00 | 41 | 1011.0 |
| 20260510212337 | 13 | 290 | 20.9 | 33.8 | 0.00 | 0.00 | 0.00 | 41 | 1011.0 |
| 20260510211436 | 13 | 290 | 20.9 | 33.8 | 0.00 | 0.00 | 0.00 | 42 | 1011.0 |
| 20260510211336 | 13 | 290 | 20.9 | 33.8 | 0.00 | 0.00 | 0.00 | 42 | 1011.0 |
| 20260510210436 | 13 | 240 | 17.7 | 29.0 | 0.00 | 0.00 | 0.00 | 44 | 1011.0 |
| 20260510210336 | 13 | 240 | 17.7 | 29.0 | 0.00 | 0.00 | 0.00 | 44 | 1011.0 |
| 20260510205435 | 13 | 240 | 17.7 | 29.0 | 0.00 | 0.00 | 0.00 | 44 | 1011.0 |
| 20260510205335 | 13 | 240 | 17.7 | 29.0 | 0.00 | 0.00 | 0.00 | 44 | 1011.0 |
| 20260510204435 | 13 | 240 | 17.7 | 29.0 | 0.00 | 0.00 | 0.00 | 44 | 1011.0 |
| 20260510204334 | 13 | 240 | 17.7 | 29.0 | 0.00 | 0.00 | 0.00 | 44 | 1011.0 |
| 20260510203434 | 13 | 240 | 17.7 | 29.0 | 0.00 | 0.00 | 0.00 | 44 | 1011.0 |
| 20260510203333 | 13 | 240 | 17.7 | 29.0 | 0.00 | 0.00 | 0.00 | 44 | 1011.0 |
| 20260510202433 | 13 | 240 | 17.7 | 29.0 | 0.00 | 0.00 | 0.00 | 45 | 1010.0 |
| 20260510202333 | 13 | 240 | 17.7 | 29.0 | 0.00 | 0.00 | 0.00 | 45 | 1010.0 |
| 20260510201432 | 12 | 240 | 17.7 | 29.0 | 0.00 | 0.00 | 0.00 | 47 | 1011.0 |
| 20260510201332 | 12 | 240 | 17.7 | 29.0 | 0.00 | 0.00 | 0.00 | 47 | 1011.0 |
| 20260510200432 | 12 | 240 | 19.3 | 30.6 | 0.00 | 0.00 | 0.00 | 50 | 1011.0 |
| 20260510200331 | 12 | 240 | 19.3 | 30.6 | 0.00 | 0.00 | 0.00 | 50 | 1011.0 |
| 20260510195431 | 12 | 240 | 19.3 | 30.6 | 0.00 | 0.00 | 0.00 | 50 | 1011.0 |
| 20260510195331 | 12 | 240 | 19.3 | 30.6 | 0.00 | 0.00 | 0.00 | 50 | 1011.0 |
| 20260510194430 | 12 | 240 | 19.3 | 30.6 | 0.00 | 0.00 | 0.00 | 50 | 1011.0 |
| 20260510194330 | 12 | 240 | 19.3 | 30.6 | 0.00 | 0.00 | 0.00 | 50 | 1011.0 |
| 20260510193430 | 12 | 240 | 19.3 | 30.6 | 0.00 | 0.00 | 0.00 | 51 | 1011.0 |
| 20260510193330 | 12 | 240 | 19.3 | 30.6 | 0.00 | 0.00 | 0.00 | 51 | 1011.0 |
| 20260510192429 | 12 | 240 | 19.3 | 30.6 | 0.00 | 0.00 | 0.00 | 53 | 1011.0 |
| 20260510192329 | 12 | 240 | 19.3 | 30.6 | 0.00 | 0.00 | 0.00 | 53 | 1011.0 |
| 20260510191428 | 12 | 240 | 19.3 | 30.6 | 0.00 | 0.00 | 0.00 | 56 | 1011.0 |
| 20260510191328 | 12 | 240 | 19.3 | 30.6 | 0.00 | 0.00 | 0.00 | 56 | 1011.0 |
| 20260510190428 | 11 | 200 | 17.7 | 0.0 | 0.00 | 0.00 | 0.00 | 62 | 1011.0 |
| 20260510190328 | 11 | 200 | 17.7 | 0.0 | 0.00 | 0.00 | 0.00 | 62 | 1011.0 |
| 20260510185427 | 11 | 200 | 17.7 | 0.0 | 0.00 | 0.00 | 0.00 | 62 | 1011.0 |
| 20260510185327 | 11 | 200 | 17.7 | 0.0 | 0.00 | 0.00 | 0.00 | 62 | 1011.0 |
| 20260510184426 | 11 | 200 | 17.7 | 0.0 | 0.00 | 0.00 | 0.00 | 62 | 1011.0 |
| 20260510184326 | 11 | 200 | 17.7 | 0.0 | 0.00 | 0.00 | 0.00 | 62 | 1011.0 |
| 20260510183425 | 11 | 200 | 17.7 | 0.0 | 0.00 | 0.00 | 0.00 | 62 | 1011.0 |
| 20260510183325 | 11 | 200 | 17.7 | 0.0 | 0.00 | 0.00 | 0.00 | 62 | 1011.0 |
| 20260510182424 | 11 | 200 | 17.7 | 0.0 | 0.00 | 0.00 | 0.00 | 62 | 1011.0 |
| 20260510182324 | 11 | 200 | 17.7 | 0.0 | 0.00 | 0.00 | 0.00 | 62 | 1011.0 |
| 20260510181422 | 11 | 200 | 17.7 | 0.0 | 0.00 | 0.00 | 0.00 | 62 | 1011.0 |
| 20260510181322 | 11 | 200 | 17.7 | 0.0 | 0.00 | 0.00 | 0.00 | 62 | 1011.0 |
| 20260510180421 | 9 | 220 | 20.9 | 0.0 | 0.00 | 0.00 | 0.00 | 87 | 1011.0 |
| 20260510180321 | 9 | 220 | 20.9 | 0.0 | 0.00 | 0.00 | 0.00 | 87 | 1011.0 |
| 20260510175421 | 9 | 220 | 20.9 | 0.0 | 0.00 | 0.00 | 0.00 | 87 | 1011.0 |
| 20260510175321 | 9 | 220 | 20.9 | 0.0 | 0.00 | 0.00 | 0.00 | 87 | 1011.0 |
| 20260510174420 | 9 | 220 | 20.9 | 0.0 | 0.00 | 0.00 | 0.00 | 87 | 1011.0 |
| 20260510174320 | 9 | 220 | 20.9 | 0.0 | 0.00 | 0.00 | 0.00 | 87 | 1011.0 |
| 20260510173419 | 9 | 220 | 20.9 | 0.0 | 0.00 | 0.00 | 0.00 | 87 | 1011.0 |
| 20260510173319 | 9 | 220 | 20.9 | 0.0 | 0.00 | 0.00 | 0.00 | 87 | 1011.0 |
| 20260510172418 | 9 | 220 | 20.9 | 0.0 | 0.00 | 0.00 | 0.00 | 87 | 1010.0 |
| 20260510172318 | 9 | 220 | 20.9 | 0.0 | 0.00 | 0.00 | 0.00 | 87 | 1010.0 |
| 20260510171417 | 9 | 220 | 20.9 | 0.0 | 0.00 | 0.00 | 0.00 | 87 | 1010.0 |
| 20260510170415 | 10 | 210 | 22.5 | 0.0 | 0.00 | 0.00 | 0.00 | 82 | 1010.0 |
| 20260510170315 | 10 | 210 | 22.5 | 0.0 | 0.00 | 0.00 | 0.00 | 82 | 1010.0 |
| 20260510165414 | 10 | 210 | 22.5 | 0.0 | 0.00 | 0.00 | 0.00 | 82 | 1010.0 |
| 20260510165314 | 10 | 210 | 22.5 | 0.0 | 0.00 | 0.00 | 0.00 | 82 | 1010.0 |
| 20260510164413 | 10 | 210 | 22.5 | 0.0 | 0.00 | 0.00 | 0.00 | 82 | 1010.0 |
| 20260510164313 | 10 | 210 | 22.5 | 0.0 | 0.00 | 0.00 | 0.00 | 82 | 1010.0 |
| 20260510163412 | 10 | 210 | 22.5 | 0.0 | 0.00 | 0.00 | 0.00 | 82 | 1010.0 |
| 20260510163312 | 10 | 210 | 22.5 | 0.0 | 0.00 | 0.00 | 0.00 | 82 | 1010.0 |
| 20260510162411 | 10 | 210 | 22.5 | 0.0 | 0.00 | 0.00 | 0.00 | 83 | 1010.0 |
| 20260510162311 | 10 | 210 | 22.5 | 0.0 | 0.00 | 0.00 | 0.00 | 83 | 1010.0 |
| 20260510161411 | 10 | 210 | 22.5 | 0.0 | 0.00 | 0.00 | 0.00 | 84 | 1011.0 |
| 20260510161311 | 10 | 210 | 22.5 | 0.0 | 0.00 | 0.00 | 0.00 | 84 | 1011.0 |
| 20260510160410 | 10 | 200 | 19.3 | 0.0 | 0.00 | 0.00 | 0.00 | 87 | 1011.0 |
| 20260510160310 | 10 | 200 | 19.3 | 0.0 | 0.00 | 0.00 | 0.00 | 87 | 1011.0 |
| 20260510155410 | 10 | 200 | 19.3 | 0.0 | 0.00 | 0.00 | 0.00 | 87 | 1011.0 |
| 20260510155309 | 10 | 200 | 19.3 | 0.0 | 0.00 | 0.00 | 0.00 | 87 | 1011.0 |
| 20260510154407 | 10 | 200 | 19.3 | 0.0 | 0.00 | 0.00 | 0.00 | 87 | 1011.0 |
| 20260510154307 | 10 | 200 | 19.3 | 0.0 | 0.00 | 0.00 | 0.00 | 87 | 1011.0 |
| 20260510153407 | 10 | 200 | 19.3 | 0.0 | 0.00 | 0.00 | 0.00 | 87 | 1011.0 |
| 20260510153306 | 10 | 200 | 19.3 | 0.0 | 0.00 | 0.00 | 0.00 | 87 | 1011.0 |
| 20260510152406 | 10 | 200 | 19.3 | 0.0 | 0.03 | 0.00 | 0.00 | 87 | 1011.0 |
| 20260510152307 | 10 | 200 | 19.3 | 0.0 | 0.03 | 0.00 | 0.00 | 87 | 1011.0 |
| 20260510151405 | 10 | 200 | 19.3 | 0.0 | 0.03 | 0.00 | 0.00 | 87 | 1011.0 |
| 20260510151305 | 10 | 200 | 19.3 | 0.0 | 0.03 | 0.00 | 0.00 | 87 | 1011.0 |
| 20260510150405 | 8 | 180 | 20.9 | 37.0 | 0.05 | 0.00 | 0.00 | 93 | 1011.0 |
| 20260510150304 | 8 | 180 | 20.9 | 37.0 | 0.05 | 0.00 | 0.00 | 93 | 1011.0 |
| 20260510145404 | 8 | 180 | 20.9 | 37.0 | 0.03 | 0.00 | 0.00 | 93 | 1011.0 |
| 20260510145306 | 8 | 180 | 20.9 | 37.0 | 0.03 | 0.00 | 0.00 | 93 | 1011.0 |
| 20260510144403 | 8 | 180 | 20.9 | 37.0 | 0.05 | 0.00 | 0.00 | 93 | 1011.0 |
| 20260510144303 | 8 | 180 | 20.9 | 37.0 | 0.05 | 0.00 | 0.00 | 93 | 1011.0 |
| 20260510143403 | 8 | 180 | 20.9 | 37.0 | 0.03 | 0.00 | 0.00 | 92 | 1011.0 |
| 20260510143302 | 8 | 180 | 20.9 | 37.0 | 0.03 | 0.00 | 0.00 | 92 | 1011.0 |
| 20260510142402 | 8 | 180 | 20.9 | 37.0 | 0.03 | 0.00 | 0.00 | 90 | 1011.0 |
| 20260510142305 | 8 | 180 | 20.9 | 37.0 | 0.03 | 0.00 | 0.00 | 90 | 1011.0 |
| 20260510141401 | 9 | 180 | 20.9 | 37.0 | 0.03 | 0.00 | 0.00 | 87 | 1011.0 |
| 20260510141301 | 9 | 180 | 20.9 | 37.0 | 0.03 | 0.00 | 0.00 | 87 | 1011.0 |
| 20260510140400 | 9 | 180 | 20.9 | 37.0 | 0.05 | 0.00 | 0.00 | 87 | 1011.0 |
| 20260510140300 | 9 | 180 | 20.9 | 37.0 | 0.05 | 0.00 | 0.00 | 87 | 1011.0 |
| 20260510135400 | 9 | 180 | 20.9 | 37.0 | 0.00 | 0.00 | 0.00 | 87 | 1011.0 |
| 20260510135259 | 9 | 180 | 20.9 | 37.0 | 0.00 | 0.00 | 0.00 | 87 | 1011.0 |
| 20260510134359 | 9 | 180 | 20.9 | 37.0 | 0.03 | 0.00 | 0.00 | 87 | 1011.0 |
| 20260510134259 | 9 | 180 | 20.9 | 37.0 | 0.03 | 0.00 | 0.00 | 87 | 1011.0 |
| 20260510133359 | 9 | 180 | 20.9 | 37.0 | 0.05 | 0.00 | 0.00 | 87 | 1011.0 |
| 20260510133258 | 9 | 180 | 20.9 | 37.0 | 0.05 | 0.00 | 0.00 | 87 | 1011.0 |
| 20260510132358 | 9 | 180 | 20.9 | 37.0 | 0.00 | 0.00 | 0.00 | 87 | 1010.0 |
| 20260510132258 | 9 | 180 | 20.9 | 37.0 | 0.00 | 0.00 | 0.00 | 87 | 1010.0 |
| 20260510131357 | 9 | 180 | 20.9 | 37.0 | 0.00 | 0.00 | 0.00 | 87 | 1011.0 |
| 20260510131257 | 9 | 180 | 20.9 | 37.0 | 0.00 | 0.00 | 0.00 | 87 | 1011.0 |
| 20260510130357 | 9 | 180 | 20.9 | 37.0 | 0.00 | 0.00 | 0.00 | 87 | 1011.0 |
| 20260510130257 | 9 | 180 | 20.9 | 37.0 | 0.00 | 0.00 | 0.00 | 87 | 1011.0 |
| 20260510125356 | 9 | 180 | 20.9 | 37.0 | 0.00 | 0.00 | 0.00 | 87 | 1011.0 |
| 20260510125256 | 9 | 180 | 20.9 | 37.0 | 0.00 | 0.00 | 0.00 | 87 | 1011.0 |
| 20260510124356 | 9 | 180 | 20.9 | 37.0 | 0.00 | 0.00 | 0.00 | 87 | 1011.0 |
| 20260510124259 | 9 | 180 | 20.9 | 37.0 | 0.00 | 0.00 | 0.00 | 87 | 1011.0 |
| 20260510123355 | 9 | 180 | 20.9 | 37.0 | 0.00 | 0.00 | 0.00 | 87 | 1009.0 |
| 20260510123255 | 9 | 180 | 20.9 | 37.0 | 0.00 | 0.00 | 0.00 | 87 | 1009.0 |
| 20260510122355 | 9 | 180 | 20.9 | 37.0 | 0.00 | 0.00 | 0.00 | 87 | 1009.0 |
| 20260510122254 | 9 | 180 | 20.9 | 37.0 | 0.00 | 0.00 | 0.00 | 87 | 1009.0 |
| 20260510121354 | 8 | 180 | 20.9 | 37.0 | 0.00 | 0.00 | 0.00 | 87 | 1009.0 |
| 20260510121254 | 8 | 180 | 20.9 | 37.0 | 0.00 | 0.00 | 0.00 | 87 | 1009.0 |
| 20260510120354 | 8 | 180 | 20.9 | 37.0 | 0.00 | 0.00 | 0.00 | 87 | 1009.0 |
| 20260510120253 | 8 | 180 | 20.9 | 37.0 | 0.00 | 0.00 | 0.00 | 87 | 1009.0 |
| 20260510115352 | 8 | 180 | 20.9 | 37.0 | 0.00 | 0.00 | 0.00 | 87 | 1009.0 |
| 20260510115252 | 8 | 180 | 20.9 | 37.0 | 0.00 | 0.00 | 0.00 | 87 | 1009.0 |
| 20260510114352 | 8 | 180 | 20.9 | 37.0 | 0.00 | 0.00 | 0.00 | 87 | 1009.0 |
| 20260510114252 | 8 | 180 | 20.9 | 37.0 | 0.00 | 0.00 | 0.00 | 87 | 1009.0 |
| 20260510113351 | 8 | 180 | 20.9 | 37.0 | 0.00 | 0.00 | 0.00 | 87 | 1009.0 |
| 20260510113251 | 8 | 180 | 20.9 | 37.0 | 0.00 | 0.00 | 0.00 | 87 | 1009.0 |
| 20260510112350 | 8 | 180 | 20.9 | 37.0 | 0.00 | 0.00 | 0.00 | 87 | 1009.0 |
| 20260510112250 | 8 | 180 | 20.9 | 37.0 | 0.00 | 0.00 | 0.00 | 87 | 1009.0 |
| 20260510111350 | 8 | 180 | 20.9 | 37.0 | 0.00 | 0.00 | 0.00 | 87 | 1009.0 |
| 20260510111249 | 8 | 180 | 20.9 | 37.0 | 0.00 | 0.00 | 0.00 | 87 | 1009.0 |
| 20260510110349 | 8 | 180 | 20.9 | 37.0 | 0.00 | 0.00 | 0.00 | 87 | 1009.0 |
| 20260510110249 | 8 | 180 | 20.9 | 37.0 | 0.00 | 0.00 | 0.00 | 87 | 1009.0 |
| 20260510105349 | 8 | 180 | 20.9 | 37.0 | 0.00 | 0.00 | 0.00 | 87 | 1009.0 |
| 20260510105248 | 8 | 180 | 20.9 | 37.0 | 0.00 | 0.00 | 0.00 | 87 | 1009.0 |
| 20260510104348 | 8 | 180 | 20.9 | 37.0 | 0.00 | 0.00 | 0.00 | 87 | 1009.0 |
| 20260510104248 | 8 | 180 | 20.9 | 37.0 | 0.00 | 0.00 | 0.00 | 87 | 1009.0 |
| 20260510103348 | 8 | 180 | 20.9 | 37.0 | 0.00 | 0.00 | 0.00 | 87 | 1009.0 |
| 20260510103247 | 8 | 180 | 20.9 | 37.0 | 0.00 | 0.00 | 0.00 | 87 | 1009.0 |
| 20260510102347 | 8 | 180 | 20.9 | 37.0 | 0.00 | 0.00 | 0.00 | 87 | 1008.0 |
| 20260510102247 | 8 | 180 | 20.9 | 37.0 | 0.00 | 0.00 | 0.00 | 87 | 1008.0 |
| 20260510101347 | 9 | 180 | 20.9 | 37.0 | 0.00 | 0.00 | 0.00 | 87 | 1008.0 |
| 20260510101246 | 9 | 180 | 20.9 | 37.0 | 0.00 | 0.00 | 0.00 | 87 | 1008.0 |
| 20260510100345 | 9 | 180 | 20.9 | 37.0 | 0.00 | 0.00 | 0.00 | 87 | 1008.0 |
| 20260510100245 | 9 | 180 | 20.9 | 37.0 | 0.00 | 0.00 | 0.00 | 87 | 1008.0 |
| 20260510095345 | 9 | 180 | 20.9 | 37.0 | 0.00 | 0.00 | 0.00 | 87 | 1008.0 |
| 20260510095245 | 9 | 180 | 20.9 | 37.0 | 0.00 | 0.00 | 0.00 | 87 | 1008.0 |
| 20260510094344 | 9 | 180 | 20.9 | 37.0 | 0.00 | 0.00 | 0.00 | 87 | 1008.0 |
| 20260510094244 | 9 | 180 | 20.9 | 37.0 | 0.00 | 0.00 | 0.00 | 87 | 1008.0 |
| 20260510093344 | 9 | 180 | 20.9 | 37.0 | 0.00 | 0.00 | 0.00 | 87 | 1008.0 |
| 20260510093244 | 9 | 180 | 20.9 | 37.0 | 0.00 | 0.00 | 0.00 | 87 | 1008.0 |
| 20260510092343 | 9 | 180 | 20.9 | 37.0 | 0.00 | 0.00 | 0.00 | 86 | 1008.0 |
| 20260510092243 | 9 | 180 | 20.9 | 37.0 | 0.00 | 0.00 | 0.00 | 86 | 1008.0 |
| 20260510091342 | 9 | 180 | 20.9 | 37.0 | 0.00 | 0.00 | 0.00 | 84 | 1008.0 |
| 20260510091242 | 9 | 180 | 20.9 | 37.0 | 0.00 | 0.00 | 0.00 | 84 | 1008.0 |
| 20260510090342 | 9 | 180 | 20.9 | 37.0 | 0.00 | 0.00 | 0.00 | 81 | 1008.0 |
| 20260510090241 | 9 | 180 | 20.9 | 37.0 | 0.00 | 0.00 | 0.00 | 81 | 1008.0 |
| 20260510085341 | 9 | 180 | 20.9 | 37.0 | 0.00 | 0.00 | 0.00 | 81 | 1008.0 |
| 20260510085241 | 9 | 180 | 20.9 | 37.0 | 0.00 | 0.00 | 0.00 | 81 | 1008.0 |
| 20260510084340 | 9 | 180 | 20.9 | 37.0 | 0.00 | 0.00 | 0.00 | 81 | 1008.0 |
| 20260510084240 | 9 | 180 | 20.9 | 37.0 | 0.00 | 0.00 | 0.00 | 81 | 1008.0 |
| 20260510083339 | 9 | 180 | 20.9 | 37.0 | 0.05 | 0.00 | 0.00 | 81 | 1008.0 |
| 20260510083239 | 9 | 180 | 20.9 | 37.0 | 0.05 | 0.00 | 0.00 | 81 | 1008.0 |
| 20260510082339 | 9 | 180 | 20.9 | 37.0 | 0.03 | 0.00 | 0.00 | 81 | 1007.0 |
| 20260510082239 | 9 | 180 | 20.9 | 37.0 | 0.03 | 0.00 | 0.00 | 81 | 1007.0 |
| 20260510081338 | 9 | 180 | 20.9 | 37.0 | 0.03 | 0.00 | 0.00 | 81 | 1007.0 |
| 20260510081238 | 9 | 180 | 20.9 | 37.0 | 0.03 | 0.00 | 0.00 | 81 | 1007.0 |
| 20260510080337 | 9 | 180 | 20.9 | 37.0 | 0.00 | 0.00 | 0.00 | 81 | 1007.0 |
| 20260510080237 | 9 | 180 | 20.9 | 37.0 | 0.00 | 0.00 | 0.00 | 81 | 1007.0 |
| 20260510075337 | 9 | 180 | 20.9 | 37.0 | 0.00 | 0.00 | 0.00 | 81 | 1007.0 |
| 20260510075236 | 9 | 180 | 20.9 | 37.0 | 0.00 | 0.00 | 0.00 | 81 | 1007.0 |
| 20260510074336 | 9 | 180 | 20.9 | 37.0 | 0.00 | 0.00 | 0.00 | 81 | 1007.0 |
| 20260510074236 | 9 | 180 | 20.9 | 37.0 | 0.00 | 0.00 | 0.00 | 81 | 1007.0 |
| 20260510073336 | 9 | 180 | 20.9 | 37.0 | 0.00 | 0.00 | 0.00 | 81 | 1008.0 |
| 20260510073236 | 9 | 180 | 20.9 | 37.0 | 0.00 | 0.00 | 0.00 | 81 | 1008.0 |
| 20260510072335 | 9 | 180 | 20.9 | 37.0 | 0.00 | 0.00 | 0.00 | 81 | 1008.0 |
| 20260510072235 | 9 | 180 | 20.9 | 37.0 | 0.00 | 0.00 | 0.00 | 81 | 1008.0 |
| 20260510071335 | 9 | 180 | 20.9 | 37.0 | 0.00 | 0.00 | 0.00 | 81 | 1008.0 |
| 20260510071235 | 9 | 180 | 20.9 | 37.0 | 0.00 | 0.00 | 0.00 | 81 | 1008.0 |
| 20260510070334 | 9 | 180 | 20.9 | 37.0 | 0.00 | 0.00 | 0.00 | 81 | 1008.0 |
| 20260510070234 | 9 | 180 | 20.9 | 37.0 | 0.00 | 0.00 | 0.00 | 81 | 1008.0 |
| 20260510065334 | 9 | 180 | 20.9 | 37.0 | 0.00 | 0.00 | 0.00 | 81 | 1008.0 |
| 20260510065233 | 9 | 180 | 20.9 | 37.0 | 0.00 | 0.00 | 0.00 | 81 | 1008.0 |
| 20260510064333 | 9 | 180 | 20.9 | 37.0 | 0.00 | 0.00 | 0.00 | 81 | 1008.0 |
| 20260510064233 | 9 | 180 | 20.9 | 37.0 | 0.00 | 0.00 | 0.00 | 81 | 1008.0 |
| 20260510063332 | 9 | 180 | 20.9 | 37.0 | 0.00 | 0.00 | 0.00 | 81 | 1008.0 |
| 20260510063232 | 9 | 180 | 20.9 | 37.0 | 0.00 | 0.00 | 0.00 | 81 | 1008.0 |
| 20260510062332 | 9 | 180 | 20.9 | 37.0 | 0.00 | 0.00 | 0.00 | 80 | 1007.0 |
| 20260510062232 | 9 | 180 | 20.9 | 37.0 | 0.00 | 0.00 | 0.00 | 80 | 1007.0 |
| 20260510061331 | 9 | 180 | 20.9 | 37.0 | 0.00 | 0.00 | 0.00 | 79 | 1007.0 |
| 20260510061231 | 9 | 180 | 20.9 | 37.0 | 0.00 | 0.00 | 0.00 | 79 | 1007.0 |
| 20260510060331 | 9 | 180 | 20.9 | 37.0 | 0.00 | 0.00 | 0.00 | 76 | 1007.0 |
| 20260510060230 | 9 | 180 | 20.9 | 37.0 | 0.00 | 0.00 | 0.00 | 76 | 1007.0 |
| 20260510055330 | 9 | 180 | 20.9 | 37.0 | 0.00 | 0.00 | 0.00 | 76 | 1007.0 |
| 20260510055230 | 9 | 180 | 20.9 | 37.0 | 0.00 | 0.00 | 0.00 | 76 | 1007.0 |
| 20260510054329 | 9 | 180 | 20.9 | 37.0 | 0.00 | 0.00 | 0.00 | 76 | 1007.0 |
| 20260510054229 | 9 | 180 | 20.9 | 37.0 | 0.00 | 0.00 | 0.00 | 76 | 1007.0 |
| 20260510053329 | 9 | 180 | 20.9 | 37.0 | 0.00 | 0.00 | 0.00 | 76 | 1008.0 |
| 20260510053228 | 9 | 180 | 20.9 | 37.0 | 0.00 | 0.00 | 0.00 | 76 | 1008.0 |
| 20260510052328 | 9 | 180 | 20.9 | 37.0 | 0.00 | 0.00 | 0.00 | 76 | 1008.0 |
| 20260510052228 | 9 | 180 | 20.9 | 37.0 | 0.00 | 0.00 | 0.00 | 76 | 1008.0 |
| 20260510051227 | 9 | 180 | 20.9 | 37.0 | 0.00 | 0.00 | 0.00 | 76 | 1008.0 |
| 20260510050327 | 9 | 170 | 19.3 | 30.6 | 0.00 | 0.00 | 0.00 | 76 | 1008.0 |
| 20260510050227 | 9 | 170 | 19.3 | 30.6 | 0.00 | 0.00 | 0.00 | 76 | 1008.0 |
| 20260510045327 | 9 | 170 | 19.3 | 30.6 | 0.00 | 0.00 | 0.00 | 76 | 1008.0 |
| 20260510045226 | 9 | 170 | 19.3 | 30.6 | 0.00 | 0.00 | 0.00 | 76 | 1008.0 |
| 20260510044326 | 9 | 170 | 19.3 | 30.6 | 0.00 | 0.00 | 0.00 | 76 | 1008.0 |
| 20260510044226 | 9 | 170 | 19.3 | 30.6 | 0.00 | 0.00 | 0.00 | 76 | 1008.0 |
| 20260510043326 | 9 | 170 | 19.3 | 30.6 | 0.00 | 0.00 | 0.00 | 76 | 1008.0 |
| 20260510043226 | 9 | 170 | 19.3 | 30.6 | 0.00 | 0.00 | 0.00 | 76 | 1008.0 |
| 20260510042325 | 9 | 170 | 19.3 | 30.6 | 0.00 | 0.00 | 0.00 | 75 | 1008.0 |
| 20260510042225 | 9 | 170 | 19.3 | 30.6 | 0.00 | 0.00 | 0.00 | 75 | 1008.0 |
| 20260510041324 | 9 | 170 | 19.3 | 30.6 | 0.00 | 0.00 | 0.00 | 74 | 1008.0 |
| 20260510041224 | 9 | 170 | 19.3 | 30.6 | 0.00 | 0.00 | 0.00 | 74 | 1008.0 |
| 20260510040324 | 9 | 170 | 12.9 | 0.0 | 0.00 | 0.00 | 0.00 | 71 | 1008.0 |
| 20260510040224 | 9 | 170 | 12.9 | 0.0 | 0.00 | 0.00 | 0.00 | 71 | 1008.0 |
| 20260510035323 | 9 | 170 | 12.9 | 0.0 | 0.00 | 0.00 | 0.00 | 71 | 1008.0 |
| 20260510035223 | 9 | 170 | 12.9 | 0.0 | 0.00 | 0.00 | 0.00 | 71 | 1008.0 |
| 20260510034322 | 9 | 170 | 12.9 | 0.0 | 0.00 | 0.00 | 0.00 | 71 | 1008.0 |
| 20260510034222 | 9 | 170 | 12.9 | 0.0 | 0.00 | 0.00 | 0.00 | 71 | 1008.0 |
| 20260510033322 | 9 | 170 | 12.9 | 0.0 | 0.00 | 0.00 | 0.00 | 71 | 1009.0 |
| 20260510033222 | 9 | 170 | 12.9 | 0.0 | 0.00 | 0.00 | 0.00 | 71 | 1009.0 |
| 20260510032321 | 9 | 170 | 12.9 | 0.0 | 0.00 | 0.00 | 0.00 | 70 | 1009.0 |
| 20260510032221 | 9 | 170 | 12.9 | 0.0 | 0.00 | 0.00 | 0.00 | 70 | 1009.0 |
| 20260510031320 | 9 | 170 | 12.9 | 0.0 | 0.00 | 0.00 | 0.00 | 69 | 1009.0 |
| 20260510031220 | 9 | 170 | 12.9 | 0.0 | 0.00 | 0.00 | 0.00 | 69 | 1009.0 |
| 20260510030320 | 9 | 170 | 12.9 | 0.0 | 0.00 | 0.00 | 0.00 | 66 | 1009.0 |
| 20260510030219 | 9 | 170 | 12.9 | 0.0 | 0.00 | 0.00 | 0.00 | 66 | 1009.0 |
| 20260510025319 | 9 | 170 | 12.9 | 0.0 | 0.00 | 0.00 | 0.00 | 66 | 1009.0 |
| 20260510025219 | 9 | 170 | 12.9 | 0.0 | 0.00 | 0.00 | 0.00 | 66 | 1009.0 |
| 20260510024319 | 9 | 170 | 12.9 | 0.0 | 0.00 | 0.00 | 0.00 | 66 | 1009.0 |
| 20260510024219 | 9 | 170 | 12.9 | 0.0 | 0.00 | 0.00 | 0.00 | 66 | 1009.0 |
| 20260510023318 | 9 | 170 | 12.9 | 0.0 | 0.00 | 0.00 | 0.00 | 66 | 1009.0 |
| 20260510023218 | 9 | 170 | 12.9 | 0.0 | 0.00 | 0.00 | 0.00 | 66 | 1009.0 |
| 20260510022317 | 9 | 170 | 12.9 | 0.0 | 0.00 | 0.00 | 0.00 | 66 | 1009.0 |
| 20260510022217 | 9 | 170 | 12.9 | 0.0 | 0.00 | 0.00 | 0.00 | 66 | 1009.0 |
| 20260510021316 | 9 | 170 | 12.9 | 0.0 | 0.00 | 0.00 | 0.00 | 66 | 1009.0 |
| 20260510021216 | 9 | 170 | 12.9 | 0.0 | 0.00 | 0.00 | 0.00 | 66 | 1009.0 |
| 20260510020316 | 9 | 150 | 9.7 | 0.0 | 0.00 | 0.00 | 0.00 | 66 | 1009.0 |
| 20260510020216 | 9 | 150 | 9.7 | 0.0 | 0.00 | 0.00 | 0.00 | 66 | 1009.0 |
| 20260510015316 | 9 | 150 | 9.7 | 0.0 | 0.00 | 0.00 | 0.00 | 66 | 1009.0 |
| 20260510015215 | 9 | 150 | 9.7 | 0.0 | 0.00 | 0.00 | 0.00 | 66 | 1009.0 |
| 20260510014315 | 9 | 150 | 9.7 | 0.0 | 0.00 | 0.00 | 0.00 | 66 | 1009.0 |
| 20260510014214 | 9 | 150 | 9.7 | 0.0 | 0.00 | 0.00 | 0.00 | 66 | 1009.0 |
| 20260510013314 | 10 | 190 | 24.1 | 37.0 | 0.00 | 0.00 | 0.00 | 66 | 1010.0 |
| 20260510013214 | 10 | 190 | 24.1 | 37.0 | 0.00 | 0.00 | 0.00 | 66 | 1010.0 |
| 20260510012313 | 10 | 190 | 24.1 | 37.0 | 0.00 | 0.00 | 0.00 | 66 | 1010.0 |
| 20260510012213 | 10 | 190 | 24.1 | 37.0 | 0.00 | 0.00 | 0.00 | 66 | 1010.0 |
| 20260510011313 | 10 | 190 | 24.1 | 37.0 | 0.00 | 0.00 | 0.00 | 66 | 1009.0 |
| 20260510011213 | 10 | 190 | 24.1 | 37.0 | 0.00 | 0.00 | 0.00 | 66 | 1009.0 |
| 20260510010312 | 10 | 190 | 24.1 | 37.0 | 0.00 | 0.00 | 0.00 | 66 | 1009.0 |
| 20260510005312 | 10 | 190 | 24.1 | 37.0 | 0.00 | 0.00 | 0.00 | 66 | 1009.0 |
| 20260510005212 | 10 | 190 | 24.1 | 37.0 | 0.00 | 0.00 | 0.00 | 66 | 1009.0 |
| 20260510004311 | 10 | 190 | 24.1 | 37.0 | 0.00 | 0.00 | 0.00 | 66 | 1009.0 |
| 20260510004211 | 10 | 190 | 24.1 | 37.0 | 0.00 | 0.00 | 0.00 | 66 | 1009.0 |
| 20260510003310 | 10 | 190 | 24.1 | 37.0 | 0.00 | 0.00 | 0.00 | 66 | 1008.0 |
| 20260510003210 | 10 | 190 | 24.1 | 37.0 | 0.00 | 0.00 | 0.00 | 66 | 1008.0 |
| 20260510002310 | 10 | 190 | 24.1 | 37.0 | 0.00 | 0.00 | 0.00 | 65 | 1008.0 |
| 20260510002209 | 10 | 190 | 24.1 | 37.0 | 0.00 | 0.00 | 0.00 | 65 | 1008.0 |
| 20260510001309 | 10 | 190 | 24.1 | 37.0 | 0.00 | 0.00 | 0.00 | 64 | 1008.0 |
| 20260510001209 | 10 | 190 | 24.1 | 37.0 | 0.00 | 0.00 | 0.00 | 64 | 1008.0 |
| 20260510000311 | 10 | 190 | 24.1 | 37.0 | 0.00 | 0.00 | 0.00 | 62 | 1008.0 |
| 20260510000208 | 10 | 190 | 24.1 | 37.0 | 0.00 | 0.00 | 0.00 | 62 | 1008.0 |
| 20260509235308 | 10 | 190 | 24.1 | 37.0 | 0.00 | 0.00 | 0.00 | 62 | 1008.0 |
| 20260509235207 | 10 | 190 | 24.1 | 37.0 | 0.00 | 0.00 | 0.00 | 62 | 1008.0 |
| 20260509234307 | 10 | 190 | 24.1 | 37.0 | 0.00 | 0.00 | 0.00 | 62 | 1008.0 |
| 20260509234207 | 10 | 190 | 24.1 | 37.0 | 0.00 | 0.00 | 0.00 | 62 | 1008.0 |
| 20260509233307 | 10 | 190 | 24.1 | 37.0 | 0.00 | 0.00 | 0.00 | 62 | 1008.0 |
| 20260509233207 | 10 | 190 | 24.1 | 37.0 | 0.00 | 0.00 | 0.00 | 62 | 1008.0 |
| 20260509232306 | 10 | 190 | 24.1 | 37.0 | 0.00 | 0.00 | 0.00 | 62 | 1008.0 |
| 20260509232206 | 10 | 190 | 24.1 | 37.0 | 0.00 | 0.00 | 0.00 | 62 | 1008.0 |